createdAt,value
2018-06-11T00:02:04.895Z,22.29
2018-06-11T00:04:33.488Z,22.25
2018-06-11T00:07:02.052Z,22.33
2018-06-11T00:09:30.651Z,22.20
2018-06-11T00:11:59.241Z,22.05
2018-06-11T00:14:27.820Z,21.95
2018-06-11T00:16:56.407Z,21.88
2018-06-11T00:19:24.996Z,21.83
2018-06-11T00:21:53.601Z,21.77
2018-06-11T00:24:22.154Z,21.71
2018-06-11T00:26:50.734Z,21.65
2018-06-11T00:29:19.296Z,21.59
2018-06-11T00:31:47.907Z,21.59
2018-06-11T00:34:16.546Z,21.56
2018-06-11T00:36:45.112Z,21.56
2018-06-11T00:39:14.198Z,21.57
2018-06-11T00:41:42.781Z,21.59
2018-06-11T00:44:11.353Z,21.66
2018-06-11T00:46:39.906Z,21.75
2018-06-11T00:49:08.521Z,21.74
2018-06-11T00:51:37.109Z,21.72
2018-06-11T00:54:05.825Z,21.82
2018-06-11T00:56:34.413Z,22.08
2018-06-11T00:59:02.982Z,22.18
2018-06-11T01:01:31.537Z,22.10
2018-06-11T01:04:00.161Z,22.39
2018-06-11T01:06:28.729Z,22.42
2018-06-11T01:08:57.341Z,22.29
2018-06-11T01:11:25.920Z,22.14
2018-06-11T01:13:54.583Z,22.33
2018-06-11T01:16:23.245Z,22.31
2018-06-11T01:18:51.868Z,22.33
2018-06-11T01:21:20.470Z,22.27
2018-06-11T01:23:49.051Z,22.27
2018-06-11T01:26:17.629Z,22.21
2018-06-11T01:28:46.208Z,22.45
2018-06-11T01:31:14.793Z,22.58
2018-06-11T01:33:43.433Z,22.50
2018-06-11T01:36:12.050Z,22.47
2018-06-11T01:38:40.608Z,22.45
2018-06-11T01:41:09.225Z,22.52
2018-06-11T01:43:37.776Z,22.51
2018-06-11T01:46:06.361Z,22.46
2018-06-11T01:48:34.957Z,22.42
2018-06-11T01:51:03.577Z,22.46
2018-06-11T01:53:32.146Z,22.47
2018-06-11T01:56:00.824Z,22.47
2018-06-11T01:58:29.461Z,22.46
2018-06-11T02:00:58.045Z,22.33
2018-06-11T02:03:26.627Z,22.28
2018-06-11T02:05:55.231Z,22.32
2018-06-11T02:08:23.821Z,22.44
2018-06-11T02:10:52.394Z,22.37
2018-06-11T02:13:20.990Z,22.46
2018-06-11T02:15:49.563Z,22.53
2018-06-11T02:18:18.109Z,22.43
2018-06-11T02:20:48.101Z,22.48
2018-06-11T02:23:16.693Z,22.45
2018-06-11T02:25:45.377Z,22.52
2018-06-11T02:28:14.048Z,22.66
2018-06-11T02:30:42.624Z,22.54
2018-06-11T02:33:11.229Z,22.54
2018-06-11T02:35:39.892Z,22.45
2018-06-11T02:38:08.498Z,22.40
2018-06-11T02:40:37.102Z,22.38
2018-06-11T02:43:05.887Z,22.58
2018-06-11T02:45:34.462Z,22.43
2018-06-11T02:48:03.069Z,22.46
2018-06-11T02:50:31.701Z,22.46
2018-06-11T02:53:00.272Z,22.40
2018-06-11T02:55:28.879Z,22.49
2018-06-11T02:57:57.514Z,22.41
2018-06-11T03:00:26.100Z,22.45
2018-06-11T03:02:54.786Z,22.35
2018-06-11T03:05:23.357Z,22.31
2018-06-11T03:07:51.952Z,22.18
2018-06-11T03:10:20.572Z,22.11
2018-06-11T03:12:49.215Z,22.01
2018-06-11T03:15:17.809Z,21.96
2018-06-11T03:17:46.374Z,22.05
2018-06-11T03:20:14.949Z,22.08
2018-06-11T03:22:43.523Z,22.10
2018-06-11T03:25:12.100Z,22.27
2018-06-11T03:27:40.653Z,22.36
2018-06-11T03:30:09.258Z,22.33
2018-06-11T03:32:37.845Z,22.25
2018-06-11T03:35:06.434Z,22.22
2018-06-11T03:37:35.022Z,22.19
2018-06-11T03:40:03.678Z,22.17
2018-06-11T03:42:32.281Z,22.11
2018-06-11T03:45:00.865Z,22.10
2018-06-11T03:47:30.042Z,22.16
2018-06-11T03:49:58.620Z,22.19
2018-06-11T03:52:27.266Z,22.24
2018-06-11T03:54:55.861Z,22.30
2018-06-11T03:57:24.480Z,22.53
2018-06-11T03:59:53.106Z,22.52
2018-06-11T04:02:21.842Z,22.63
2018-06-11T04:04:50.430Z,22.76
2018-06-11T04:07:19.573Z,22.77
2018-06-11T04:09:48.209Z,22.91
2018-06-11T04:12:16.894Z,22.93
2018-06-11T04:14:45.516Z,22.93
2018-06-11T04:17:14.165Z,23.13
2018-06-11T04:19:42.749Z,23.21
2018-06-11T04:22:11.320Z,23.22
2018-06-11T04:24:39.938Z,23.17
2018-06-11T04:27:08.572Z,23.40
2018-06-11T04:29:38.055Z,23.40
2018-06-11T04:32:06.678Z,23.51
2018-06-11T04:34:35.271Z,23.43
2018-06-11T04:37:03.835Z,23.45
2018-06-11T04:39:32.397Z,23.51
2018-06-11T04:42:00.993Z,23.61
2018-06-11T04:44:29.569Z,23.56
2018-06-11T04:46:58.185Z,23.71
2018-06-11T04:49:26.792Z,23.84
2018-06-11T04:51:55.366Z,23.89
2018-06-11T04:54:23.968Z,23.84
2018-06-11T04:56:52.546Z,24.05
2018-06-11T04:59:21.141Z,24.02
2018-06-11T05:01:50.188Z,23.97
2018-06-11T05:04:18.770Z,23.89
2018-06-11T05:06:47.374Z,24.11
2018-06-11T05:09:16.029Z,24.32
2018-06-11T05:11:44.618Z,24.43
2018-06-11T05:14:13.257Z,24.51
2018-06-11T05:16:41.819Z,24.53
2018-06-11T05:19:10.414Z,24.53
2018-06-11T05:21:39.029Z,24.55
2018-06-11T05:24:07.656Z,24.65
2018-06-11T05:26:36.214Z,24.80
2018-06-11T05:29:04.811Z,24.86
2018-06-11T05:31:33.457Z,24.89
2018-06-11T05:34:02.247Z,24.86
2018-06-11T05:36:31.414Z,24.93
2018-06-11T05:39:00.046Z,25.07
2018-06-11T05:41:28.672Z,25.02
2018-06-11T05:43:57.553Z,25.14
2018-06-11T05:46:26.150Z,25.03
2018-06-11T05:48:54.759Z,25.17
2018-06-11T06:04:13.552Z,25.24
2018-06-11T06:06:42.157Z,25.36
2018-06-11T06:09:10.779Z,25.44
2018-06-11T06:11:39.390Z,25.32
2018-06-11T06:14:08.076Z,25.45
2018-06-11T06:16:36.736Z,25.54
2018-06-11T06:19:05.849Z,25.41
2018-06-11T06:21:34.520Z,25.44
2018-06-11T06:24:03.159Z,25.52
2018-06-11T06:26:31.815Z,25.56
2018-06-11T06:29:00.435Z,25.57
2018-06-11T06:31:29.226Z,25.45
2018-06-11T06:33:57.904Z,25.69
2018-06-11T06:36:26.595Z,25.67
2018-06-11T06:38:55.224Z,25.58
2018-06-11T06:41:23.866Z,25.65
2018-06-11T06:43:52.543Z,26.02
2018-06-11T06:46:21.241Z,25.85
2018-06-11T06:48:49.921Z,25.92
2018-06-11T06:51:18.615Z,25.92
2018-06-11T06:53:47.357Z,26.02
2018-06-11T06:56:15.989Z,26.27
2018-06-11T06:58:44.669Z,26.35
2018-06-11T07:01:13.307Z,26.58
2018-06-11T07:03:42.045Z,26.50
2018-06-11T07:06:10.756Z,26.60
2018-06-11T07:08:39.414Z,26.54
2018-06-11T07:11:08.104Z,26.67
2018-06-11T07:13:36.889Z,26.85
2018-06-11T07:16:05.552Z,26.89
2018-06-11T07:18:34.185Z,26.91
2018-06-11T07:21:02.862Z,26.70
2018-06-11T07:23:31.565Z,26.77
2018-06-11T07:26:00.213Z,26.78
2018-06-11T07:28:28.887Z,26.91
2018-06-11T07:30:57.533Z,26.97
2018-06-11T07:33:26.312Z,27.04
2018-06-11T07:35:54.988Z,27.02
2018-06-11T07:38:23.710Z,26.84
2018-06-11T07:40:52.330Z,26.66
2018-06-11T07:43:20.958Z,26.80
2018-06-11T07:45:49.598Z,26.88
2018-06-11T07:48:18.250Z,26.97
2018-06-11T07:50:46.924Z,26.83
2018-06-11T07:53:15.597Z,27.01
2018-06-11T07:55:44.255Z,27.17
2018-06-11T07:58:13.373Z,27.06
2018-06-11T08:00:42.095Z,27.17
2018-06-11T08:03:10.740Z,27.34
2018-06-11T08:05:39.476Z,27.48
2018-06-11T08:08:08.176Z,27.50
2018-06-11T08:10:37.055Z,27.26
2018-06-11T08:13:05.722Z,27.50
2018-06-11T08:15:34.398Z,27.37
2018-06-11T08:18:03.085Z,27.52
2018-06-11T08:20:31.759Z,27.59
2018-06-11T08:23:00.422Z,27.58
2018-06-11T08:25:29.139Z,27.67
2018-06-11T08:27:57.865Z,27.88
2018-06-11T08:30:26.665Z,27.68
2018-06-11T08:32:55.342Z,27.79
2018-06-11T08:35:23.987Z,28.14
2018-06-11T08:37:52.660Z,28.37
2018-06-11T08:40:21.378Z,28.39
2018-06-11T08:42:50.043Z,28.56
2018-06-11T08:45:18.734Z,28.36
2018-06-11T08:47:47.408Z,28.47
2018-06-11T08:50:16.219Z,28.36
2018-06-11T08:52:44.892Z,28.43
2018-06-11T08:55:13.577Z,28.66
2018-06-11T08:57:42.239Z,28.78
2018-06-11T09:00:10.984Z,28.88
2018-06-11T09:02:39.629Z,28.89
2018-06-11T09:05:08.272Z,28.90
2018-06-11T09:07:36.929Z,29.13
2018-06-11T09:10:05.704Z,29.21
2018-06-11T09:12:34.390Z,29.37
2018-06-11T09:15:03.014Z,29.19
2018-06-11T09:17:31.676Z,29.16
2018-06-11T09:20:00.339Z,28.95
2018-06-11T09:22:29.021Z,28.94
2018-06-11T09:24:57.745Z,29.14
2018-06-11T09:27:26.431Z,29.37
2018-06-11T09:29:55.123Z,29.37
2018-06-11T09:32:23.801Z,29.61
2018-06-11T09:34:52.558Z,29.58
2018-06-11T09:37:21.234Z,29.77
2018-06-11T09:39:49.863Z,29.94
2018-06-11T09:42:18.526Z,30.14
2018-06-11T09:44:47.215Z,29.99
2018-06-11T09:47:15.893Z,30.03
2018-06-11T09:49:44.583Z,30.21
2018-06-11T09:52:13.293Z,30.34
2018-06-11T09:54:41.993Z,30.61
2018-06-11T09:57:10.640Z,30.96
2018-06-11T09:59:39.258Z,31.02
2018-06-11T10:02:07.930Z,31.02
2018-06-11T10:04:36.535Z,30.87
2018-06-11T10:07:05.182Z,30.73
2018-06-11T10:09:33.860Z,30.69
2018-06-11T10:12:02.531Z,30.43
2018-06-11T10:14:31.199Z,30.56
2018-06-11T10:17:00.674Z,30.76
2018-06-11T10:19:29.381Z,30.62
2018-06-11T10:21:58.687Z,30.60
2018-06-11T10:24:29.325Z,30.74
2018-06-11T10:27:02.986Z,30.60
2018-06-11T10:32:13.201Z,31.65
2018-06-11T10:34:48.806Z,31.94
2018-06-11T10:37:17.587Z,32.29
2018-06-11T10:39:46.612Z,32.00
2018-06-11T10:42:16.443Z,32.45
2018-06-11T10:44:45.125Z,32.24
2018-06-11T10:47:13.799Z,32.43
2018-06-11T10:49:42.588Z,32.70
2018-06-11T10:52:11.258Z,32.67
2018-06-11T10:54:40.378Z,32.42
2018-06-11T10:57:09.136Z,32.24
2018-06-11T10:59:37.810Z,32.29
2018-06-11T11:02:06.528Z,32.00
2018-06-11T11:04:35.215Z,31.92
2018-06-11T11:07:03.883Z,32.14
2018-06-11T11:09:33.635Z,32.47
2018-06-11T11:12:07.743Z,32.84
2018-06-11T11:14:37.759Z,33.07
2018-06-11T11:17:07.446Z,33.50
2018-06-11T11:19:39.460Z,33.65
2018-06-11T11:22:12.316Z,33.49
2018-06-11T11:24:46.109Z,33.36
2018-06-11T11:27:14.908Z,33.47
2018-06-11T11:29:43.533Z,33.27
2018-06-11T11:32:13.308Z,33.36
2018-06-11T11:34:44.786Z,33.51
2018-06-11T11:37:14.787Z,33.88
2018-06-11T11:39:44.387Z,33.92
2018-06-11T11:42:14.402Z,33.94
2018-06-11T11:44:45.084Z,33.80
2018-06-11T11:47:16.348Z,33.26
2018-06-11T11:49:46.582Z,33.42
2018-06-11T11:52:17.075Z,33.46
2018-06-11T11:54:54.799Z,33.77
2018-06-11T11:57:23.596Z,34.27
2018-06-11T11:59:52.298Z,33.51
2018-06-11T12:02:21.068Z,33.62
2018-06-11T12:04:49.750Z,33.85
2018-06-11T12:07:18.389Z,33.95
2018-06-11T12:09:47.170Z,33.34
2018-06-11T12:12:15.811Z,33.48
2018-06-11T12:14:45.434Z,33.51
2018-06-11T12:17:14.122Z,33.22
2018-06-11T12:19:42.958Z,33.51
2018-06-11T12:22:11.730Z,33.96
2018-06-11T12:24:40.460Z,34.24
2018-06-11T12:27:09.279Z,34.41
2018-06-11T12:29:38.085Z,34.53
2018-06-11T12:32:09.306Z,34.81
2018-06-11T12:34:38.023Z,34.20
2018-06-11T12:37:06.763Z,34.29
2018-06-11T12:39:35.705Z,33.67
2018-06-11T12:42:04.385Z,33.43
2018-06-11T12:44:33.168Z,33.15
2018-06-11T12:47:01.918Z,33.56
2018-06-11T12:49:30.640Z,33.83
2018-06-11T12:51:59.335Z,33.74
2018-06-11T12:54:28.162Z,33.48
2018-06-11T12:56:56.911Z,33.50
2018-06-11T12:59:31.242Z,33.92
2018-06-11T13:01:59.911Z,34.17
2018-06-11T13:04:28.669Z,34.76
2018-06-11T13:06:57.530Z,35.09
2018-06-11T13:09:26.278Z,35.04
2018-06-11T13:11:55.076Z,34.80
2018-06-11T13:14:23.775Z,34.97
2018-06-11T13:16:53.009Z,35.28
2018-06-11T13:19:21.729Z,35.39
2018-06-11T13:21:50.442Z,35.38
2018-06-11T13:24:19.183Z,35.03
2018-06-11T13:26:48.023Z,34.96
2018-06-11T13:29:16.711Z,35.64
2018-06-11T13:31:45.423Z,35.75
2018-06-11T13:34:14.058Z,35.59
2018-06-11T13:36:42.769Z,35.47
2018-06-11T13:39:11.393Z,35.08
2018-06-11T13:41:40.205Z,34.91
2018-06-11T13:44:08.899Z,34.67
2018-06-11T13:46:37.638Z,34.44
2018-06-11T13:49:06.338Z,34.02
2018-06-11T13:51:35.030Z,33.88
2018-06-11T13:54:03.698Z,34.02
2018-06-11T13:56:32.384Z,34.18
2018-06-11T13:59:01.107Z,34.23
2018-06-11T14:01:29.965Z,34.21
2018-06-11T14:03:58.773Z,34.16
2018-06-11T14:06:27.470Z,34.41
2018-06-11T14:08:56.119Z,34.67
2018-06-11T14:11:24.813Z,35.09
2018-06-11T14:13:53.451Z,35.53
2018-06-11T14:16:22.114Z,36.12
2018-06-11T14:18:50.763Z,36.74
2018-06-11T14:21:19.482Z,38.14
2018-06-11T14:23:48.144Z,39.57
2018-06-11T14:26:16.791Z,39.47
2018-06-11T14:28:46.439Z,39.84
2018-06-11T14:31:17.347Z,41.22
2018-06-11T14:33:46.065Z,42.12
2018-06-11T14:36:14.739Z,42.39
2018-06-11T14:38:43.452Z,43.70
2018-06-11T14:41:12.206Z,44.44
2018-06-11T14:43:40.825Z,44.49
2018-06-11T14:46:09.617Z,44.43
2018-06-11T14:48:38.266Z,44.73
2018-06-11T14:51:07.037Z,44.80
2018-06-11T14:53:35.802Z,44.77
2018-06-11T14:56:04.560Z,44.89
2018-06-11T14:58:35.364Z,44.29
2018-06-11T15:01:06.240Z,43.27
2018-06-11T15:03:38.712Z,42.11
2018-06-11T15:06:11.565Z,40.70
2018-06-11T15:08:43.876Z,39.60
2018-06-11T15:11:16.175Z,38.59
2018-06-11T15:13:50.287Z,38.15
2018-06-11T15:16:19.360Z,39.50
2018-06-11T15:18:52.104Z,41.51
2018-06-11T15:21:24.721Z,42.92
2018-06-11T15:23:57.813Z,43.10
2018-06-11T15:26:30.323Z,43.39
2018-06-11T15:29:06.468Z,43.52
2018-06-11T15:31:40.726Z,42.99
2018-06-11T15:34:11.008Z,43.87
2018-06-11T15:36:42.415Z,44.46
2018-06-11T15:39:13.102Z,44.74
2018-06-11T15:41:46.455Z,45.47
2018-06-11T15:44:19.355Z,46.00
2018-06-11T15:46:50.169Z,46.19
2018-06-11T15:49:19.210Z,46.04
2018-06-11T15:51:48.488Z,46.49
2018-06-11T15:54:17.194Z,46.84
2018-06-11T15:56:46.347Z,46.72
2018-06-11T15:59:15.037Z,47.12
2018-06-11T16:01:43.687Z,46.97
2018-06-11T16:04:12.383Z,47.18
2018-06-11T16:06:41.032Z,47.62
2018-06-11T16:09:09.680Z,46.88
2018-06-11T16:11:38.458Z,46.83
2018-06-11T16:14:07.155Z,46.60
2018-06-11T16:16:35.911Z,46.26
2018-06-11T16:19:04.542Z,46.51
2018-06-11T16:21:33.208Z,46.21
2018-06-11T16:24:01.860Z,45.99
2018-06-11T16:26:30.555Z,45.84
2018-06-11T16:28:59.177Z,46.74
2018-06-11T16:31:27.860Z,46.39
2018-06-11T16:33:56.789Z,46.56
2018-06-11T16:36:25.433Z,46.48
2018-06-11T16:38:54.121Z,46.30
2018-06-11T16:41:23.423Z,46.26
2018-06-11T16:43:52.219Z,45.95
2018-06-11T16:46:20.882Z,45.02
2018-06-11T16:48:49.601Z,44.36
2018-06-11T16:51:18.200Z,44.30
2018-06-11T16:53:46.896Z,43.98
2018-06-11T16:56:15.979Z,44.49
2018-06-11T16:58:44.652Z,44.50
2018-06-11T17:01:13.308Z,43.56
2018-06-11T17:03:42.089Z,43.74
2018-06-11T17:06:10.780Z,43.93
2018-06-11T17:08:39.477Z,43.91
2018-06-11T17:11:08.191Z,43.23
2018-06-11T17:13:36.974Z,42.87
2018-06-11T17:16:05.668Z,42.78
2018-06-11T17:18:34.416Z,42.88
2018-06-11T17:21:03.078Z,42.42
2018-06-11T17:23:31.819Z,41.98
2018-06-11T17:26:00.547Z,41.32
2018-06-11T17:28:29.162Z,41.02
2018-06-11T17:30:57.759Z,40.76
2018-06-11T17:33:26.439Z,40.44
2018-06-11T17:35:55.607Z,40.02
2018-06-11T17:38:24.324Z,39.24
2018-06-11T17:40:53.001Z,38.15
2018-06-11T17:43:21.702Z,37.09
2018-06-11T17:45:50.368Z,36.10
2018-06-11T17:48:19.067Z,35.11
2018-06-11T17:50:47.680Z,34.36
2018-06-11T17:53:16.291Z,33.71
2018-06-11T17:55:44.954Z,33.19
2018-06-11T17:58:13.621Z,32.76
2018-06-11T18:00:42.303Z,32.24
2018-06-11T18:03:10.989Z,31.89
2018-06-11T18:05:40.028Z,31.54
2018-06-11T18:08:08.779Z,31.21
2018-06-11T18:10:37.527Z,30.93
2018-06-11T18:13:06.253Z,30.59
2018-06-11T18:15:35.018Z,30.28
2018-06-11T18:18:03.718Z,30.06
2018-06-11T18:20:32.501Z,29.91
2018-06-11T18:23:01.133Z,29.64
2018-06-11T18:25:31.617Z,29.43
2018-06-11T18:28:00.368Z,29.22
2018-06-11T18:33:18.415Z,28.81
2018-06-11T18:35:48.184Z,28.63
2018-06-11T18:38:19.011Z,28.46
2018-06-11T18:40:48.054Z,28.30
2018-06-11T18:43:16.794Z,28.14
2018-06-11T18:45:45.562Z,28.02
2018-06-11T18:48:15.280Z,27.93
2018-06-11T18:50:45.758Z,27.75
2018-06-11T18:53:16.063Z,27.65
2018-06-11T18:55:46.518Z,27.58
2018-06-11T18:58:15.222Z,27.57
2018-06-11T19:00:43.914Z,27.41
2018-06-11T19:03:13.034Z,27.35
2018-06-11T19:05:41.860Z,27.31
2018-06-11T19:08:12.452Z,27.22
2018-06-11T19:10:42.454Z,27.12
2018-06-11T19:13:11.397Z,27.11
2018-06-11T19:15:42.005Z,27.01
2018-06-11T19:18:12.082Z,26.84
2018-06-11T19:20:40.874Z,26.70
2018-06-11T19:23:09.664Z,26.65
2018-06-11T19:25:39.643Z,26.58
2018-06-11T19:28:09.359Z,26.53
2018-06-11T19:30:38.151Z,26.45
2018-06-11T19:33:07.319Z,26.42
2018-06-11T19:35:36.715Z,26.41
2018-06-11T19:38:05.879Z,26.38
2018-06-11T19:40:35.106Z,26.34
2018-06-11T19:43:03.913Z,26.21
2018-06-11T19:45:32.714Z,26.24
2018-06-11T19:48:01.528Z,26.32
2018-06-11T19:50:30.326Z,26.34
2018-06-11T19:52:59.319Z,26.32
2018-06-11T19:55:28.087Z,26.31
2018-06-11T19:57:56.752Z,26.35
2018-06-11T20:00:25.437Z,26.30
2018-06-11T20:02:54.938Z,26.28
2018-06-11T20:05:23.673Z,26.23
2018-06-11T20:07:52.491Z,26.19
2018-06-11T20:10:21.293Z,26.26
2018-06-11T20:12:50.111Z,26.15
2018-06-11T20:15:18.877Z,26.18
2018-06-11T20:17:47.638Z,26.10
2018-06-11T20:20:16.496Z,26.07
2018-06-11T20:22:45.683Z,25.96
2018-06-11T20:25:15.285Z,25.91
2018-06-11T20:27:44.065Z,25.91
2018-06-11T20:30:12.939Z,25.89
2018-06-11T20:32:44.404Z,25.83
2018-06-11T20:35:13.601Z,25.83
2018-06-11T20:37:52.179Z,25.75
2018-06-11T20:40:30.300Z,25.68
2018-06-11T20:42:59.352Z,25.64
2018-06-11T20:45:29.777Z,25.59
2018-06-11T20:47:58.857Z,25.57
2018-06-11T20:50:30.356Z,25.53
2018-06-11T20:52:59.034Z,25.54
2018-06-11T20:55:27.697Z,25.44
2018-06-11T20:57:57.075Z,25.38
2018-06-11T21:00:28.801Z,25.32
2018-06-11T21:03:00.907Z,25.26
2018-06-11T21:05:34.550Z,25.19
2018-06-11T21:08:03.278Z,25.27
2018-06-11T21:10:32.192Z,25.27
2018-06-11T21:13:01.783Z,25.22
2018-06-11T21:15:37.344Z,25.23
2018-06-11T21:18:07.408Z,25.20
2018-06-11T21:20:37.635Z,25.15
2018-06-11T21:23:06.398Z,25.17
2018-06-11T21:25:35.059Z,25.16
2018-06-11T21:28:11.999Z,25.17
2018-06-11T21:30:41.128Z,25.16
2018-06-11T21:33:11.059Z,25.04
2018-06-11T21:35:49.521Z,24.96
2018-06-11T21:38:20.576Z,24.88
2018-06-11T21:40:49.981Z,24.82
2018-06-11T21:43:21.829Z,24.78
2018-06-11T21:45:52.546Z,24.76
2018-06-11T21:48:25.009Z,24.95
2018-06-11T21:50:56.285Z,24.85
2018-06-11T21:53:28.439Z,24.73
2018-06-11T21:58:36.389Z,24.61
2018-06-11T22:01:06.357Z,24.64
2018-06-11T22:03:38.306Z,24.55
2018-06-11T22:06:07.938Z,24.47
2018-06-11T22:08:37.170Z,24.45
2018-06-11T22:11:08.674Z,24.49
2018-06-11T22:13:38.561Z,24.55
2018-06-11T22:16:07.839Z,24.47
2018-06-11T22:18:38.033Z,24.48
2018-06-11T22:21:07.354Z,24.45
2018-06-11T22:23:36.540Z,24.37
2018-06-11T22:26:15.939Z,24.30
2018-06-11T22:28:44.995Z,24.21
2018-06-11T22:31:14.907Z,24.20
2018-06-11T22:33:44.229Z,24.15
2018-06-11T22:36:20.988Z,24.14
2018-06-11T22:38:53.529Z,24.13
2018-06-11T22:41:23.722Z,24.25
2018-06-11T22:43:53.588Z,24.18
2018-06-11T22:46:22.940Z,24.19
2018-06-11T22:48:51.590Z,24.23
2018-06-11T22:51:20.262Z,24.16
2018-06-11T22:53:48.930Z,24.09
2018-06-11T22:56:17.903Z,24.07
2018-06-11T22:58:46.640Z,24.06
2018-06-11T23:01:15.346Z,24.04
2018-06-11T23:03:44.187Z,24.06
2018-06-11T23:06:12.919Z,24.05
2018-06-11T23:08:41.608Z,24.07
2018-06-11T23:11:10.374Z,24.15
2018-06-11T23:13:39.106Z,24.09
2018-06-11T23:16:07.885Z,24.14
2018-06-11T23:18:37.188Z,24.09
2018-06-11T23:21:05.984Z,24.02
2018-06-11T23:23:34.752Z,24.00
2018-06-11T23:26:03.473Z,23.94
2018-06-11T23:28:32.106Z,23.92
2018-06-11T23:31:00.863Z,23.98
2018-06-11T23:33:29.871Z,23.97
2018-06-11T23:35:58.607Z,23.96
2018-06-11T23:38:27.920Z,23.95
2018-06-11T23:40:56.643Z,23.91
2018-06-11T23:43:25.343Z,23.90
2018-06-11T23:45:54.235Z,24.08
2018-06-11T23:48:22.959Z,24.11
2018-06-11T23:50:51.630Z,24.10
2018-06-11T23:53:20.349Z,24.11
2018-06-11T23:55:49.002Z,24.11
2018-06-11T23:58:17.691Z,24.10
